sensor_id;sensor_type;location;lat;lon;timestamp;P1;P2;P0
67892;PMS7003;54688;52.376;16.744;2022-10-22T00:02:44;34;29;
67892;PMS7003;54688;52.376;16.744;2022-10-22T00:05:46;38;32;
67892;PMS7003;54688;52.376;16.744;2022-10-22T00:08:48;39;33;
67892;PMS7003;54688;52.376;16.744;2022-10-22T00:11:50;37;32;
67892;PMS7003;54688;52.376;16.744;2022-10-22T00:14:52;43;33;
67892;PMS7003;54688;52.376;16.744;2022-10-22T00:17:54;37;29;
67892;PMS7003;54688;52.376;16.744;2022-10-22T00:20:56;34;30;
67892;PMS7003;54688;52.376;16.744;2022-10-22T00:26:57;46;35;
67892;PMS7003;54688;52.376;16.744;2022-10-22T00:29:59;45;35;
67892;PMS7003;54688;52.376;16.744;2022-10-22T00:33:01;52;43;
67892;PMS7003;54688;52.376;16.744;2022-10-22T00:36:04;57;44;
67892;PMS7003;54688;52.376;16.744;2022-10-22T00:39:06;50;39;
67892;PMS7003;54688;52.376;16.744;2022-10-22T00:42:11;62;45;
67892;PMS7003;54688;52.376;16.744;2022-10-22T00:45:22;46;37;
67892;PMS7003;54688;52.376;16.744;2022-10-22T00:48:26;39;32;
67892;PMS7003;54688;52.376;16.744;2022-10-22T00:51:31;30;26;
67892;PMS7003;54688;52.376;16.744;2022-10-22T00:54:34;30;28;
67892;PMS7003;54688;52.376;16.744;2022-10-22T00:57:36;33;29;
67892;PMS7003;54688;52.376;16.744;2022-10-22T01:00:40;33;29;
67892;PMS7003;54688;52.376;16.744;2022-10-22T01:03:42;47;35;
67892;PMS7003;54688;52.376;16.744;2022-10-22T01:06:44;32;29;
67892;PMS7003;54688;52.376;16.744;2022-10-22T01:09:51;30;29;
67892;PMS7003;54688;52.376;16.744;2022-10-22T01:13:07;39;34;
67892;PMS7003;54688;52.376;16.744;2022-10-22T01:16:16;42;34;
67892;PMS7003;54688;52.376;16.744;2022-10-22T01:19:31;41;32;
67892;PMS7003;54688;52.376;16.744;2022-10-22T01:22:39;36;30;
67892;PMS7003;54688;52.376;16.744;2022-10-22T01:25:49;40;32;
67892;PMS7003;54688;52.376;16.744;2022-10-22T01:28:59;40;32;
67892;PMS7003;54688;52.376;16.744;2022-10-22T01:32:06;39;32;
67892;PMS7003;54688;52.376;16.744;2022-10-22T01:35:12;37;31;
67892;PMS7003;54688;52.376;16.744;2022-10-22T01:38:18;45;33;
67892;PMS7003;54688;52.376;16.744;2022-10-22T01:41:21;35;30;
67892;PMS7003;54688;52.376;16.744;2022-10-22T01:44:25;34;31;
67892;PMS7003;54688;52.376;16.744;2022-10-22T01:47:39;47;34;
67892;PMS7003;54688;52.376;16.744;2022-10-22T01:50:52;29;26;
67892;PMS7003;54688;52.376;16.744;2022-10-22T01:54:00;38;29;
67892;PMS7003;54688;52.376;16.744;2022-10-22T01:57:08;38;34;
67892;PMS7003;54688;52.376;16.744;2022-10-22T02:03:18;31;28;
67892;PMS7003;54688;52.376;16.744;2022-10-22T02:06:23;38;31;
67892;PMS7003;54688;52.376;16.744;2022-10-22T02:09:27;32;30;
67892;PMS7003;54688;52.376;16.744;2022-10-22T02:12:31;34;31;
67892;PMS7003;54688;52.376;16.744;2022-10-22T02:15:34;33;29;
67892;PMS7003;54688;52.376;16.744;2022-10-22T02:18:39;41;31;
67892;PMS7003;54688;52.376;16.744;2022-10-22T02:21:43;41;32;
67892;PMS7003;54688;52.376;16.744;2022-10-22T02:24:46;41;32;
67892;PMS7003;54688;52.376;16.744;2022-10-22T02:27:53;39;31;
67892;PMS7003;54688;52.376;16.744;2022-10-22T02:31:04;35;31;
67892;PMS7003;54688;52.376;16.744;2022-10-22T02:34:14;40;32;
67892;PMS7003;54688;52.376;16.744;2022-10-22T02:37:18;36;32;
67892;PMS7003;54688;52.376;16.744;2022-10-22T02:40:20;41;33;
67892;PMS7003;54688;52.376;16.744;2022-10-22T02:43:23;29;29;
67892;PMS7003;54688;52.376;16.744;2022-10-22T02:46:25;35;30;
67892;PMS7003;54688;52.376;16.744;2022-10-22T02:49:27;38;33;
67892;PMS7003;54688;52.376;16.744;2022-10-22T02:52:29;40;31;
67892;PMS7003;54688;52.376;16.744;2022-10-22T02:55:31;42;33;
67892;PMS7003;54688;52.376;16.744;2022-10-22T02:58:32;39;32;
67892;PMS7003;54688;52.376;16.744;2022-10-22T03:01:34;45;34;
67892;PMS7003;54688;52.376;16.744;2022-10-22T03:04:37;40;32;
67892;PMS7003;54688;52.376;16.744;2022-10-22T03:07:40;37;32;
67892;PMS7003;54688;52.376;16.744;2022-10-22T03:10:42;33;28;
67892;PMS7003;54688;52.376;16.744;2022-10-22T03:13:44;37;33;
67892;PMS7003;54688;52.376;16.744;2022-10-22T03:16:47;38;32;
67892;PMS7003;54688;52.376;16.744;2022-10-22T03:19:49;46;35;
67892;PMS7003;54688;52.376;16.744;2022-10-22T03:22:51;41;33;
67892;PMS7003;54688;52.376;16.744;2022-10-22T03:25:53;44;35;
67892;PMS7003;54688;52.376;16.744;2022-10-22T03:28:55;38;31;
67892;PMS7003;54688;52.376;16.744;2022-10-22T03:31:58;50;40;
67892;PMS7003;54688;52.376;16.744;2022-10-22T03:35:00;45;35;
67892;PMS7003;54688;52.376;16.744;2022-10-22T03:38:02;41;33;
67892;PMS7003;54688;52.376;16.744;2022-10-22T03:41:05;42;33;
67892;PMS7003;54688;52.376;16.744;2022-10-22T03:44:07;45;34;
67892;PMS7003;54688;52.376;16.744;2022-10-22T03:47:09;45;36;
67892;PMS7003;54688;52.376;16.744;2022-10-22T03:50:12;45;36;
67892;PMS7003;54688;52.376;16.744;2022-10-22T03:53:14;39;33;
67892;PMS7003;54688;52.376;16.744;2022-10-22T03:56:16;47;38;
67892;PMS7003;54688;52.376;16.744;2022-10-22T03:59:18;39;33;
67892;PMS7003;54688;52.376;16.744;2022-10-22T04:02:20;50;36;
67892;PMS7003;54688;52.376;16.744;2022-10-22T04:05:23;45;34;
67892;PMS7003;54688;52.376;16.744;2022-10-22T04:08:25;46;36;
67892;PMS7003;54688;52.376;16.744;2022-10-22T04:11:28;53;41;
67892;PMS7003;54688;52.376;16.744;2022-10-22T04:14:30;45;35;
67892;PMS7003;54688;52.376;16.744;2022-10-22T04:17:33;40;35;
67892;PMS7003;54688;52.376;16.744;2022-10-22T04:20:35;45;35;
67892;PMS7003;54688;52.376;16.744;2022-10-22T04:23:38;42;35;
67892;PMS7003;54688;52.376;16.744;2022-10-22T04:26:40;45;33;
67892;PMS7003;54688;52.376;16.744;2022-10-22T04:29:42;44;37;
67892;PMS7003;54688;52.376;16.744;2022-10-22T04:32:44;44;34;
67892;PMS7003;54688;52.376;16.744;2022-10-22T04:35:46;48;36;
67892;PMS7003;54688;52.376;16.744;2022-10-22T04:38:52;42;33;
67892;PMS7003;54688;52.376;16.744;2022-10-22T04:41:54;40;33;
67892;PMS7003;54688;52.376;16.744;2022-10-22T04:44:56;47;33;
67892;PMS7003;54688;52.376;16.744;2022-10-22T04:47:58;47;38;
67892;PMS7003;54688;52.376;16.744;2022-10-22T04:51:02;39;32;
67892;PMS7003;54688;52.376;16.744;2022-10-22T04:54:04;48;38;
67892;PMS7003;54688;52.376;16.744;2022-10-22T04:57:07;42;35;
67892;PMS7003;54688;52.376;16.744;2022-10-22T05:00:10;43;35;
67892;PMS7003;54688;52.376;16.744;2022-10-22T05:03:11;46;38;
67892;PMS7003;54688;52.376;16.744;2022-10-22T05:06:16;44;33;
67892;PMS7003;54688;52.376;16.744;2022-10-22T05:09:19;42;35;
67892;PMS7003;54688;52.376;16.744;2022-10-22T05:12:21;46;35;
67892;PMS7003;54688;52.376;16.744;2022-10-22T05:15:23;40;33;
67892;PMS7003;54688;52.376;16.744;2022-10-22T05:18:25;46;36;
67892;PMS7003;54688;52.376;16.744;2022-10-22T05:21:27;48;35;
67892;PMS7003;54688;52.376;16.744;2022-10-22T05:24:30;51;39;
67892;PMS7003;54688;52.376;16.744;2022-10-22T05:27:33;43;35;
67892;PMS7003;54688;52.376;16.744;2022-10-22T05:30:35;50;40;
67892;PMS7003;54688;52.376;16.744;2022-10-22T05:33:38;53;39;
67892;PMS7003;54688;52.376;16.744;2022-10-22T05:36:40;49;38;
67892;PMS7003;54688;52.376;16.744;2022-10-22T05:39:42;46;36;
67892;PMS7003;54688;52.376;16.744;2022-10-22T05:42:44;53;39;
67892;PMS7003;54688;52.376;16.744;2022-10-22T05:45:46;46;35;
67892;PMS7003;54688;52.376;16.744;2022-10-22T05:48:48;45;37;
67892;PMS7003;54688;52.376;16.744;2022-10-22T05:51:50;42;32;
67892;PMS7003;54688;52.376;16.744;2022-10-22T05:54:52;45;36;
67892;PMS7003;54688;52.376;16.744;2022-10-22T05:57:54;50;40;
67892;PMS7003;54688;52.376;16.744;2022-10-22T06:01:01;38;31;
67892;PMS7003;54688;52.376;16.744;2022-10-22T06:04:05;43;34;
67892;PMS7003;54688;52.376;16.744;2022-10-22T06:07:12;39;35;
67892;PMS7003;54688;52.376;16.744;2022-10-22T06:10:18;48;38;
67892;PMS7003;54688;52.376;16.744;2022-10-22T06:13:21;47;38;
67892;PMS7003;54688;52.376;16.744;2022-10-22T06:16:23;50;38;
67892;PMS7003;54688;52.376;16.744;2022-10-22T06:19:25;48;36;
67892;PMS7003;54688;52.376;16.744;2022-10-22T06:22:28;45;32;
67892;PMS7003;54688;52.376;16.744;2022-10-22T06:25:30;47;36;
67892;PMS7003;54688;52.376;16.744;2022-10-22T06:28:32;49;37;
67892;PMS7003;54688;52.376;16.744;2022-10-22T06:31:35;43;35;
67892;PMS7003;54688;52.376;16.744;2022-10-22T06:34:37;49;35;
67892;PMS7003;54688;52.376;16.744;2022-10-22T06:37:39;50;41;
67892;PMS7003;54688;52.376;16.744;2022-10-22T06:40:41;46;38;
67892;PMS7003;54688;52.376;16.744;2022-10-22T06:43:44;48;39;
67892;PMS7003;54688;52.376;16.744;2022-10-22T06:46:48;45;35;
67892;PMS7003;54688;52.376;16.744;2022-10-22T06:49:50;50;39;
67892;PMS7003;54688;52.376;16.744;2022-10-22T06:52:52;47;35;
67892;PMS7003;54688;52.376;16.744;2022-10-22T06:55:55;49;35;
67892;PMS7003;54688;52.376;16.744;2022-10-22T06:58:57;45;35;
67892;PMS7003;54688;52.376;16.744;2022-10-22T07:01:59;46;36;
67892;PMS7003;54688;52.376;16.744;2022-10-22T07:05:02;47;35;
67892;PMS7003;54688;52.376;16.744;2022-10-22T07:08:05;42;33;
67892;PMS7003;54688;52.376;16.744;2022-10-22T07:11:09;39;30;
67892;PMS7003;54688;52.376;16.744;2022-10-22T07:14:12;45;37;
67892;PMS7003;54688;52.376;16.744;2022-10-22T07:17:14;40;33;
67892;PMS7003;54688;52.376;16.744;2022-10-22T07:20:16;44;34;
67892;PMS7003;54688;52.376;16.744;2022-10-22T07:23:19;41;33;
67892;PMS7003;54688;52.376;16.744;2022-10-22T07:26:22;46;35;
67892;PMS7003;54688;52.376;16.744;2022-10-22T07:29:24;45;37;
67892;PMS7003;54688;52.376;16.744;2022-10-22T07:32:26;41;35;
67892;PMS7003;54688;52.376;16.744;2022-10-22T07:35:28;53;38;
67892;PMS7003;54688;52.376;16.744;2022-10-22T07:38:32;49;39;
67892;PMS7003;54688;52.376;16.744;2022-10-22T07:41:34;46;35;
67892;PMS7003;54688;52.376;16.744;2022-10-22T07:44:36;44;33;
67892;PMS7003;54688;52.376;16.744;2022-10-22T07:47:37;45;35;
67892;PMS7003;54688;52.376;16.744;2022-10-22T07:50:39;41;33;
67892;PMS7003;54688;52.376;16.744;2022-10-22T07:53:41;45;34;
67892;PMS7003;54688;52.376;16.744;2022-10-22T07:56:44;44;33;
67892;PMS7003;54688;52.376;16.744;2022-10-22T07:59:46;44;32;
67892;PMS7003;54688;52.376;16.744;2022-10-22T08:02:48;47;36;
67892;PMS7003;54688;52.376;16.744;2022-10-22T08:05:51;48;38;
67892;PMS7003;54688;52.376;16.744;2022-10-22T08:11:54;46;37;
67892;PMS7003;54688;52.376;16.744;2022-10-22T08:14:55;46;35;
67892;PMS7003;54688;52.376;16.744;2022-10-22T08:17:59;51;38;
67892;PMS7003;54688;52.376;16.744;2022-10-22T08:21:01;42;34;
67892;PMS7003;54688;52.376;16.744;2022-10-22T08:24:04;44;35;
67892;PMS7003;54688;52.376;16.744;2022-10-22T08:27:06;45;35;
67892;PMS7003;54688;52.376;16.744;2022-10-22T08:30:09;47;40;
67892;PMS7003;54688;52.376;16.744;2022-10-22T08:33:11;47;36;
67892;PMS7003;54688;52.376;16.744;2022-10-22T08:36:13;50;40;
67892;PMS7003;54688;52.376;16.744;2022-10-22T08:39:15;39;33;
67892;PMS7003;54688;52.376;16.744;2022-10-22T08:42:32;36;30;
67892;PMS7003;54688;52.376;16.744;2022-10-22T08:45:45;30;26;
67892;PMS7003;54688;52.376;16.744;2022-10-22T08:48:53;45;35;
67892;PMS7003;54688;52.376;16.744;2022-10-22T08:51:56;43;35;
67892;PMS7003;54688;52.376;16.744;2022-10-22T08:55:00;37;31;
67892;PMS7003;54688;52.376;16.744;2022-10-22T08:58:10;37;31;
67892;PMS7003;54688;52.376;16.744;2022-10-22T09:01:18;36;31;
67892;PMS7003;54688;52.376;16.744;2022-10-22T09:04:25;41;33;
67892;PMS7003;54688;52.376;16.744;2022-10-22T09:07:29;40;32;
67892;PMS7003;54688;52.376;16.744;2022-10-22T09:10:35;31;27;
67892;PMS7003;54688;52.376;16.744;2022-10-22T09:13:39;42;31;
67892;PMS7003;54688;52.376;16.744;2022-10-22T09:20:05;40;30;
67892;PMS7003;54688;52.376;16.744;2022-10-22T09:23:19;42;35;
67892;PMS7003;54688;52.376;16.744;2022-10-22T09:26:24;35;30;
67892;PMS7003;54688;52.376;16.744;2022-10-22T09:29:31;38;33;
67892;PMS7003;54688;52.376;16.744;2022-10-22T09:32:33;44;35;
67892;PMS7003;54688;52.376;16.744;2022-10-22T09:35:44;37;32;
67892;PMS7003;54688;52.376;16.744;2022-10-22T09:38:50;48;36;
67892;PMS7003;54688;52.376;16.744;2022-10-22T09:41:52;41;31;
67892;PMS7003;54688;52.376;16.744;2022-10-22T09:44:57;42;34;
67892;PMS7003;54688;52.376;16.744;2022-10-22T09:48:09;44;34;
67892;PMS7003;54688;52.376;16.744;2022-10-22T09:51:14;42;32;
67892;PMS7003;54688;52.376;16.744;2022-10-22T09:54:21;43;35;
67892;PMS7003;54688;52.376;16.744;2022-10-22T09:57:23;40;32;
67892;PMS7003;54688;52.376;16.744;2022-10-22T10:00:26;42;33;
67892;PMS7003;54688;52.376;16.744;2022-10-22T10:03:31;48;33;
67892;PMS7003;54688;52.376;16.744;2022-10-22T10:06:34;49;36;
67892;PMS7003;54688;52.376;16.744;2022-10-22T10:09:37;42;34;
67892;PMS7003;54688;52.376;16.744;2022-10-22T10:12:43;56;41;
67892;PMS7003;54688;52.376;16.744;2022-10-22T10:15:53;47;39;
67892;PMS7003;54688;52.376;16.744;2022-10-22T10:19:08;40;33;
67892;PMS7003;54688;52.376;16.744;2022-10-22T10:22:18;49;38;
67892;PMS7003;54688;52.376;16.744;2022-10-22T10:25:34;44;37;
67892;PMS7003;54688;52.376;16.744;2022-10-22T10:28:50;55;44;
67892;PMS7003;54688;52.376;16.744;2022-10-22T10:32:05;46;38;
67892;PMS7003;54688;52.376;16.744;2022-10-22T10:35:19;41;33;
67892;PMS7003;54688;52.376;16.744;2022-10-22T10:38:31;46;36;
67892;PMS7003;54688;52.376;16.744;2022-10-22T10:41:46;45;37;
67892;PMS7003;54688;52.376;16.744;2022-10-22T10:44:59;40;32;
67892;PMS7003;54688;52.376;16.744;2022-10-22T10:48:28;40;34;
67892;PMS7003;54688;52.376;16.744;2022-10-22T10:51:39;45;35;
67892;PMS7003;54688;52.376;16.744;2022-10-22T10:54:49;44;36;
67892;PMS7003;54688;52.376;16.744;2022-10-22T10:57:57;48;38;
67892;PMS7003;54688;52.376;16.744;2022-10-22T11:01:09;42;35;
67892;PMS7003;54688;52.376;16.744;2022-10-22T11:04:28;42;35;
67892;PMS7003;54688;52.376;16.744;2022-10-22T11:07:38;45;38;
67892;PMS7003;54688;52.376;16.744;2022-10-22T11:10:44;49;36;
67892;PMS7003;54688;52.376;16.744;2022-10-22T11:13:51;48;35;
67892;PMS7003;54688;52.376;16.744;2022-10-22T11:17:00;49;36;
67892;PMS7003;54688;52.376;16.744;2022-10-22T11:20:13;45;36;
67892;PMS7003;54688;52.376;16.744;2022-10-22T11:23:22;53;41;
67892;PMS7003;54688;52.376;16.744;2022-10-22T11:26:32;50;38;
67892;PMS7003;54688;52.376;16.744;2022-10-22T11:29:40;45;38;
67892;PMS7003;54688;52.376;16.744;2022-10-22T11:32:46;52;41;
67892;PMS7003;54688;52.376;16.744;2022-10-22T11:35:51;47;35;
67892;PMS7003;54688;52.376;16.744;2022-10-22T11:38:53;49;38;
67892;PMS7003;54688;52.376;16.744;2022-10-22T11:41:57;43;34;
67892;PMS7003;54688;52.376;16.744;2022-10-22T11:45:00;45;36;
67892;PMS7003;54688;52.376;16.744;2022-10-22T11:48:06;42;35;
67892;PMS7003;54688;52.376;16.744;2022-10-22T11:51:28;52;40;
67892;PMS7003;54688;52.376;16.744;2022-10-22T11:54:39;46;36;
67892;PMS7003;54688;52.376;16.744;2022-10-22T11:57:41;37;29;
67892;PMS7003;54688;52.376;16.744;2022-10-22T12:00:46;43;32;
67892;PMS7003;54688;52.376;16.744;2022-10-22T12:03:50;35;32;
67892;PMS7003;54688;52.376;16.744;2022-10-22T12:06:56;36;32;
67892;PMS7003;54688;52.376;16.744;2022-10-22T12:09:59;46;38;
67892;PMS7003;54688;52.376;16.744;2022-10-22T12:13:11;34;31;
67892;PMS7003;54688;52.376;16.744;2022-10-22T12:16:14;41;30;
67892;PMS7003;54688;52.376;16.744;2022-10-22T12:19:23;42;34;
67892;PMS7003;54688;52.376;16.744;2022-10-22T12:22:28;44;34;
67892;PMS7003;54688;52.376;16.744;2022-10-22T12:25:32;39;31;
67892;PMS7003;54688;52.376;16.744;2022-10-22T12:28:38;36;29;
67892;PMS7003;54688;52.376;16.744;2022-10-22T12:31:43;39;32;
67892;PMS7003;54688;52.376;16.744;2022-10-22T12:34:48;51;40;
67892;PMS7003;54688;52.376;16.744;2022-10-22T12:37:51;47;36;
67892;PMS7003;54688;52.376;16.744;2022-10-22T12:40:55;48;38;
67892;PMS7003;54688;52.376;16.744;2022-10-22T12:43:58;35;32;
67892;PMS7003;54688;52.376;16.744;2022-10-22T12:47:00;32;28;
67892;PMS7003;54688;52.376;16.744;2022-10-22T12:50:05;30;26;
67892;PMS7003;54688;52.376;16.744;2022-10-22T12:53:12;30;27;
67892;PMS7003;54688;52.376;16.744;2022-10-22T12:56:20;32;27;
67892;PMS7003;54688;52.376;16.744;2022-10-22T12:59:24;29;27;
67892;PMS7003;54688;52.376;16.744;2022-10-22T13:05:30;37;32;
67892;PMS7003;54688;52.376;16.744;2022-10-22T13:08:33;32;24;
67892;PMS7003;54688;52.376;16.744;2022-10-22T13:11:38;23;23;
67892;PMS7003;54688;52.376;16.744;2022-10-22T13:14:41;35;29;
67892;PMS7003;54688;52.376;16.744;2022-10-22T13:17:46;32;27;
67892;PMS7003;54688;52.376;16.744;2022-10-22T13:20:50;35;31;
67892;PMS7003;54688;52.376;16.744;2022-10-22T13:23:57;34;30;
67892;PMS7003;54688;52.376;16.744;2022-10-22T13:27:00;35;30;
67892;PMS7003;54688;52.376;16.744;2022-10-22T13:30:22;29;27;
67892;PMS7003;54688;52.376;16.744;2022-10-22T13:33:27;37;30;
67892;PMS7003;54688;52.376;16.744;2022-10-22T13:36:30;31;25;
67892;PMS7003;54688;52.376;16.744;2022-10-22T13:39:33;36;32;
67892;PMS7003;54688;52.376;16.744;2022-10-22T13:42:35;38;32;
67892;PMS7003;54688;52.376;16.744;2022-10-22T13:45:37;36;30;
67892;PMS7003;54688;52.376;16.744;2022-10-22T13:48:39;40;30;
67892;PMS7003;54688;52.376;16.744;2022-10-22T13:51:42;36;29;
67892;PMS7003;54688;52.376;16.744;2022-10-22T13:54:44;29;26;
67892;PMS7003;54688;52.376;16.744;2022-10-22T13:57:46;32;30;
67892;PMS7003;54688;52.376;16.744;2022-10-22T14:00:52;35;28;
67892;PMS7003;54688;52.376;16.744;2022-10-22T14:03:56;33;30;
67892;PMS7003;54688;52.376;16.744;2022-10-22T14:07:00;34;28;
67892;PMS7003;54688;52.376;16.744;2022-10-22T14:10:02;32;30;
67892;PMS7003;54688;52.376;16.744;2022-10-22T14:13:05;38;30;
67892;PMS7003;54688;52.376;16.744;2022-10-22T14:16:14;33;28;
67892;PMS7003;54688;52.376;16.744;2022-10-22T14:19:17;35;31;
67892;PMS7003;54688;52.376;16.744;2022-10-22T14:22:19;33;29;
67892;PMS7003;54688;52.376;16.744;2022-10-22T14:25:23;41;33;
67892;PMS7003;54688;52.376;16.744;2022-10-22T14:28:26;32;25;
67892;PMS7003;54688;52.376;16.744;2022-10-22T14:31:29;38;30;
67892;PMS7003;54688;52.376;16.744;2022-10-22T14:34:31;34;26;
67892;PMS7003;54688;52.376;16.744;2022-10-22T14:37:33;31;28;
67892;PMS7003;54688;52.376;16.744;2022-10-22T14:40:36;38;31;
67892;PMS7003;54688;52.376;16.744;2022-10-22T14:43:38;31;25;
67892;PMS7003;54688;52.376;16.744;2022-10-22T14:46:40;34;28;
67892;PMS7003;54688;52.376;16.744;2022-10-22T14:49:42;34;29;
67892;PMS7003;54688;52.376;16.744;2022-10-22T14:52:44;32;27;
67892;PMS7003;54688;52.376;16.744;2022-10-22T14:55:47;28;26;
67892;PMS7003;54688;52.376;16.744;2022-10-22T14:58:48;29;26;
67892;PMS7003;54688;52.376;16.744;2022-10-22T15:01:51;38;27;
67892;PMS7003;54688;52.376;16.744;2022-10-22T15:04:53;34;26;
67892;PMS7003;54688;52.376;16.744;2022-10-22T15:07:55;30;23;
67892;PMS7003;54688;52.376;16.744;2022-10-22T15:10:59;31;29;
67892;PMS7003;54688;52.376;16.744;2022-10-22T15:14:01;28;22;
67892;PMS7003;54688;52.376;16.744;2022-10-22T15:17:02;36;32;
67892;PMS7003;54688;52.376;16.744;2022-10-22T15:20:05;30;27;
67892;PMS7003;54688;52.376;16.744;2022-10-22T15:23:07;29;27;
67892;PMS7003;54688;52.376;16.744;2022-10-22T15:26:11;31;23;
67892;PMS7003;54688;52.376;16.744;2022-10-22T15:29:15;32;30;
67892;PMS7003;54688;52.376;16.744;2022-10-22T15:32:17;27;22;
67892;PMS7003;54688;52.376;16.744;2022-10-22T15:35:20;27;25;
67892;PMS7003;54688;52.376;16.744;2022-10-22T15:38:26;30;27;
67892;PMS7003;54688;52.376;16.744;2022-10-22T15:41:28;35;32;
67892;PMS7003;54688;52.376;16.744;2022-10-22T15:44:30;33;28;
67892;PMS7003;54688;52.376;16.744;2022-10-22T15:47:33;32;29;
67892;PMS7003;54688;52.376;16.744;2022-10-22T15:50:37;36;27;
67892;PMS7003;54688;52.376;16.744;2022-10-22T15:53:39;34;29;
67892;PMS7003;54688;52.376;16.744;2022-10-22T15:56:41;32;24;
67892;PMS7003;54688;52.376;16.744;2022-10-22T15:59:43;29;25;
67892;PMS7003;54688;52.376;16.744;2022-10-22T16:02:45;33;30;
67892;PMS7003;54688;52.376;16.744;2022-10-22T16:05:49;27;23;
67892;PMS7003;54688;52.376;16.744;2022-10-22T16:08:51;33;28;
67892;PMS7003;54688;52.376;16.744;2022-10-22T16:11:53;34;30;
67892;PMS7003;54688;52.376;16.744;2022-10-22T16:14:55;26;24;
67892;PMS7003;54688;52.376;16.744;2022-10-22T16:17:58;31;27;
67892;PMS7003;54688;52.376;16.744;2022-10-22T16:21:00;25;25;
67892;PMS7003;54688;52.376;16.744;2022-10-22T16:24:02;22;22;
67892;PMS7003;54688;52.376;16.744;2022-10-22T16:27:04;33;30;
67892;PMS7003;54688;52.376;16.744;2022-10-22T16:30:08;36;30;
67892;PMS7003;54688;52.376;16.744;2022-10-22T16:33:10;31;26;
67892;PMS7003;54688;52.376;16.744;2022-10-22T16:36:14;35;30;
67892;PMS7003;54688;52.376;16.744;2022-10-22T16:39:17;29;26;
67892;PMS7003;54688;52.376;16.744;2022-10-22T16:42:18;29;26;
67892;PMS7003;54688;52.376;16.744;2022-10-22T16:45:20;36;29;
67892;PMS7003;54688;52.376;16.744;2022-10-22T16:48:23;36;32;
67892;PMS7003;54688;52.376;16.744;2022-10-22T16:51:26;28;25;
67892;PMS7003;54688;52.376;16.744;2022-10-22T16:54:28;38;32;
67892;PMS7003;54688;52.376;16.744;2022-10-22T16:57:30;32;25;
67892;PMS7003;54688;52.376;16.744;2022-10-22T17:00:32;31;29;
67892;PMS7003;54688;52.376;16.744;2022-10-22T17:03:35;37;29;
67892;PMS7003;54688;52.376;16.744;2022-10-22T17:06:37;30;29;
67892;PMS7003;54688;52.376;16.744;2022-10-22T17:09:39;37;28;
67892;PMS7003;54688;52.376;16.744;2022-10-22T17:12:41;39;31;
67892;PMS7003;54688;52.376;16.744;2022-10-22T17:15:43;42;30;
67892;PMS7003;54688;52.376;16.744;2022-10-22T17:18:45;44;31;
67892;PMS7003;54688;52.376;16.744;2022-10-22T17:21:48;41;32;
67892;PMS7003;54688;52.376;16.744;2022-10-22T17:25:07;37;32;
67892;PMS7003;54688;52.376;16.744;2022-10-22T17:28:10;41;33;
67892;PMS7003;54688;52.376;16.744;2022-10-22T17:31:15;38;33;
67892;PMS7003;54688;52.376;16.744;2022-10-22T17:37:16;54;41;
67892;PMS7003;54688;52.376;16.744;2022-10-22T17:40:18;47;39;
67892;PMS7003;54688;52.376;16.744;2022-10-22T17:43:20;54;41;
67892;PMS7003;54688;52.376;16.744;2022-10-22T17:46:23;46;37;
67892;PMS7003;54688;52.376;16.744;2022-10-22T17:49:25;49;39;
67892;PMS7003;54688;52.376;16.744;2022-10-22T17:52:27;47;40;
67892;PMS7003;54688;52.376;16.744;2022-10-22T17:55:29;50;40;
67892;PMS7003;54688;52.376;16.744;2022-10-22T17:58:31;57;42;
67892;PMS7003;54688;52.376;16.744;2022-10-22T18:01:35;47;38;
67892;PMS7003;54688;52.376;16.744;2022-10-22T18:04:37;45;37;
67892;PMS7003;54688;52.376;16.744;2022-10-22T18:07:39;46;37;
67892;PMS7003;54688;52.376;16.744;2022-10-22T18:10:41;48;36;
67892;PMS7003;54688;52.376;16.744;2022-10-22T18:16:43;40;34;
67892;PMS7003;54688;52.376;16.744;2022-10-22T18:19:46;42;34;
67892;PMS7003;54688;52.376;16.744;2022-10-22T18:22:49;41;34;
67892;PMS7003;54688;52.376;16.744;2022-10-22T18:25:51;45;38;
67892;PMS7003;54688;52.376;16.744;2022-10-22T18:28:53;47;36;
67892;PMS7003;54688;52.376;16.744;2022-10-22T18:31:55;45;33;
67892;PMS7003;54688;52.376;16.744;2022-10-22T18:34:56;45;32;
67892;PMS7003;54688;52.376;16.744;2022-10-22T18:37:58;46;38;
67892;PMS7003;54688;52.376;16.744;2022-10-22T18:41:01;49;37;
67892;PMS7003;54688;52.376;16.744;2022-10-22T18:44:04;48;38;
67892;PMS7003;54688;52.376;16.744;2022-10-22T18:47:06;47;38;
67892;PMS7003;54688;52.376;16.744;2022-10-22T18:50:08;38;33;
67892;PMS7003;54688;52.376;16.744;2022-10-22T18:53:12;46;36;
67892;PMS7003;54688;52.376;16.744;2022-10-22T18:56:15;39;30;
67892;PMS7003;54688;52.376;16.744;2022-10-22T18:59:19;47;35;
67892;PMS7003;54688;52.376;16.744;2022-10-22T19:02:22;46;37;
67892;PMS7003;54688;52.376;16.744;2022-10-22T19:05:23;45;35;
67892;PMS7003;54688;52.376;16.744;2022-10-22T19:08:26;43;34;
67892;PMS7003;54688;52.376;16.744;2022-10-22T19:11:28;47;37;
67892;PMS7003;54688;52.376;16.744;2022-10-22T19:14:30;44;35;
67892;PMS7003;54688;52.376;16.744;2022-10-22T19:17:33;41;32;
67892;PMS7003;54688;52.376;16.744;2022-10-22T19:23:35;47;38;
67892;PMS7003;54688;52.376;16.744;2022-10-22T19:26:37;44;33;
67892;PMS7003;54688;52.376;16.744;2022-10-22T19:29:39;44;35;
67892;PMS7003;54688;52.376;16.744;2022-10-22T19:32:42;47;36;
67892;PMS7003;54688;52.376;16.744;2022-10-22T19:35:44;51;41;
67892;PMS7003;54688;52.376;16.744;2022-10-22T19:38:47;48;39;
67892;PMS7003;54688;52.376;16.744;2022-10-22T19:41:49;56;44;
67892;PMS7003;54688;52.376;16.744;2022-10-22T19:44:51;48;38;
67892;PMS7003;54688;52.376;16.744;2022-10-22T19:47:53;51;40;
67892;PMS7003;54688;52.376;16.744;2022-10-22T19:50:58;49;40;
67892;PMS7003;54688;52.376;16.744;2022-10-22T19:54:02;52;41;
67892;PMS7003;54688;52.376;16.744;2022-10-22T19:57:04;57;42;
67892;PMS7003;54688;52.376;16.744;2022-10-22T20:00:09;54;42;
67892;PMS7003;54688;52.376;16.744;2022-10-22T20:03:12;58;41;
67892;PMS7003;54688;52.376;16.744;2022-10-22T20:06:17;50;40;
67892;PMS7003;54688;52.376;16.744;2022-10-22T20:09:19;47;35;
67892;PMS7003;54688;52.376;16.744;2022-10-22T20:12:21;47;36;
67892;PMS7003;54688;52.376;16.744;2022-10-22T20:15:23;42;35;
67892;PMS7003;54688;52.376;16.744;2022-10-22T20:18:25;47;39;
67892;PMS7003;54688;52.376;16.744;2022-10-22T20:21:28;50;39;
67892;PMS7003;54688;52.376;16.744;2022-10-22T20:24:30;50;36;
67892;PMS7003;54688;52.376;16.744;2022-10-22T20:27:32;49;39;